createdAt,value
2017-08-09T00:00:07.627Z,79.6
2017-08-09T00:01:08.997Z,79.5
2017-08-09T00:02:10.378Z,78.6
2017-08-09T00:03:11.779Z,78.8
2017-08-09T00:04:13.207Z,78.8
2017-08-09T00:05:14.602Z,79.1
2017-08-09T00:06:15.976Z,78.7
2017-08-09T00:07:17.414Z,79.1
2017-08-09T00:08:18.800Z,78.8
2017-08-09T00:09:20.179Z,78.6
2017-08-09T00:10:21.632Z,79.0
2017-08-09T00:11:23.081Z,79.0
2017-08-09T00:12:24.510Z,78.8
2017-08-09T00:13:25.922Z,78.9
2017-08-09T00:14:27.405Z,79.1
2017-08-09T00:15:29.363Z,79.1
2017-08-09T00:16:30.808Z,79.5
2017-08-09T00:17:32.282Z,79.2
2017-08-09T00:18:33.786Z,79.4
2017-08-09T00:19:35.179Z,79.9
2017-08-09T00:20:36.611Z,79.4
2017-08-09T00:21:38.035Z,79.7
2017-08-09T00:22:39.409Z,79.4
2017-08-09T00:23:40.854Z,79.8
2017-08-09T00:24:42.338Z,79.6
2017-08-09T00:25:43.837Z,79.4
2017-08-09T00:26:45.213Z,79.4
2017-08-09T00:27:46.639Z,79.7
2017-08-09T00:28:48.056Z,79.7
2017-08-09T00:29:49.472Z,79.5
2017-08-09T00:30:50.876Z,79.1
2017-08-09T00:31:52.287Z,78.8
2017-08-09T00:32:53.696Z,79.1
2017-08-09T00:33:55.215Z,78.9
2017-08-09T00:34:56.720Z,78.6
2017-08-09T00:35:58.113Z,78.7
2017-08-09T00:36:59.509Z,78.6
2017-08-09T00:38:00.895Z,78.5
2017-08-09T00:39:02.320Z,78.2
2017-08-09T00:40:03.750Z,78.2
2017-08-09T00:41:05.170Z,78.2
2017-08-09T00:42:06.623Z,78.2
2017-08-09T00:43:08.077Z,78.4
2017-08-09T00:44:09.479Z,77.8
2017-08-09T00:45:10.895Z,77.8
2017-08-09T00:46:12.340Z,77.6
2017-08-09T00:47:13.766Z,77.6
2017-08-09T00:48:15.155Z,77.2
2017-08-09T00:49:16.540Z,76.8
2017-08-09T00:50:17.921Z,77.0
2017-08-09T00:51:19.406Z,76.7
2017-08-09T00:52:20.781Z,76.7
2017-08-09T00:53:22.306Z,76.8
2017-08-09T00:54:23.691Z,76.4
2017-08-09T00:55:25.078Z,76.0
2017-08-09T00:56:26.473Z,76.8
2017-08-09T00:57:27.990Z,76.8
2017-08-09T00:58:29.381Z,76.7
2017-08-09T00:59:30.821Z,76.8
2017-08-09T01:00:32.306Z,76.8
2017-08-09T01:01:33.701Z,76.6
2017-08-09T01:02:35.157Z,76.7
2017-08-09T01:04:16.529Z,76.8
2017-08-09T01:05:17.906Z,76.8
2017-08-09T01:06:40.908Z,76.6
2017-08-09T01:07:42.281Z,76.4
2017-08-09T01:08:43.660Z,76.5
2017-08-09T01:09:45.038Z,76.3
2017-08-09T01:10:46.536Z,76.3
2017-08-09T01:11:47.903Z,76.2
2017-08-09T01:12:49.283Z,76.2
2017-08-09T01:13:50.665Z,75.5
2017-08-09T01:14:52.055Z,76.1
2017-08-09T01:15:53.435Z,75.1
2017-08-09T01:16:54.817Z,75.4
2017-08-09T01:17:56.195Z,75.4
2017-08-09T01:18:57.574Z,75.4
2017-08-09T01:19:58.955Z,75.3
2017-08-09T01:21:00.373Z,74.7
2017-08-09T01:22:42.748Z,75.3
2017-08-09T01:23:44.118Z,75.4
2017-08-09T01:24:45.493Z,75.1
2017-08-09T01:25:46.903Z,75.3
2017-08-09T01:26:48.279Z,76.0
2017-08-09T01:27:49.666Z,75.4
2017-08-09T01:28:51.058Z,76.2
2017-08-09T01:29:52.437Z,75.4
2017-08-09T01:30:53.828Z,75.8
2017-08-09T01:31:55.308Z,76.4
2017-08-09T01:32:56.697Z,76.1
2017-08-09T01:33:58.181Z,76.3
2017-08-09T01:34:59.540Z,75.8
2017-08-09T01:36:00.933Z,76.2
2017-08-09T01:37:02.340Z,75.5
2017-08-09T01:38:04.390Z,75.9
2017-08-09T01:39:06.349Z,75.8
2017-08-09T01:40:08.449Z,76.3
2017-08-09T01:41:09.952Z,76.3
2017-08-09T01:42:11.461Z,76.3
2017-08-09T01:43:12.869Z,76.0
2017-08-09T01:44:14.256Z,76.2
2017-08-09T01:45:15.731Z,76.2
2017-08-09T01:46:17.262Z,76.0
2017-08-09T01:47:18.686Z,76.0
2017-08-09T01:48:20.090Z,76.2
2017-08-09T01:49:21.517Z,75.9
2017-08-09T01:50:23.067Z,75.6
2017-08-09T01:51:24.549Z,76.1
2017-08-09T01:52:25.925Z,76.0
2017-08-09T01:53:27.310Z,75.5
2017-08-09T01:54:28.698Z,75.3
2017-08-09T01:55:30.076Z,75.6
2017-08-09T01:56:31.499Z,75.5
2017-08-09T01:58:12.868Z,75.1
2017-08-09T01:59:14.365Z,75.9
2017-08-09T02:00:37.328Z,75.3
2017-08-09T02:01:38.801Z,75.5
2017-08-09T02:02:40.160Z,75.3
2017-08-09T02:03:41.540Z,75.8
2017-08-09T02:04:42.916Z,75.8
2017-08-09T02:05:44.304Z,76.0
2017-08-09T02:06:45.677Z,76.1
2017-08-09T02:07:47.059Z,76.0
2017-08-09T02:08:48.471Z,75.7
2017-08-09T02:09:49.836Z,75.8
2017-08-09T02:10:51.263Z,75.6
2017-08-09T02:11:52.629Z,75.8
2017-08-09T02:12:54.005Z,76.3
2017-08-09T02:13:55.456Z,75.9
2017-08-09T02:14:56.865Z,76.5
2017-08-09T02:15:58.244Z,76.6
2017-08-09T02:16:59.771Z,76.6
2017-08-09T02:18:01.162Z,76.8
2017-08-09T02:19:42.613Z,77.0
2017-08-09T02:20:43.973Z,77.2
2017-08-09T02:22:06.973Z,77.5
2017-08-09T02:23:08.346Z,77.8
2017-08-09T02:24:09.724Z,77.8
2017-08-09T02:25:11.110Z,77.8
2017-08-09T02:26:12.486Z,77.7
2017-08-09T02:27:13.869Z,77.8
2017-08-09T02:28:15.250Z,77.9
2017-08-09T02:29:16.628Z,78.5
2017-08-09T02:30:18.052Z,78.4
2017-08-09T02:31:19.411Z,78.5
2017-08-09T02:32:20.795Z,78.1
2017-08-09T02:33:22.177Z,78.8
2017-08-09T02:34:23.560Z,79.1
2017-08-09T02:35:24.938Z,78.8
2017-08-09T02:36:26.316Z,79.2
2017-08-09T02:37:27.691Z,79.4
2017-08-09T02:38:29.070Z,79.4
2017-08-09T02:39:30.459Z,79.6
2017-08-09T02:40:31.828Z,79.8
2017-08-09T02:41:33.217Z,79.8
2017-08-09T02:42:34.635Z,79.4
2017-08-09T02:43:36.099Z,79.6
2017-08-09T02:44:37.594Z,79.8
2017-08-09T02:45:38.964Z,79.5
2017-08-09T02:46:40.363Z,79.6
2017-08-09T02:47:41.725Z,79.4
2017-08-09T02:48:43.114Z,79.4
2017-08-09T02:49:44.545Z,79.6
2017-08-09T02:50:46.588Z,79.1
2017-08-09T02:51:47.969Z,78.6
2017-08-09T02:52:49.355Z,79.0
2017-08-09T02:53:50.753Z,78.6
2017-08-09T02:54:52.137Z,78.5
2017-08-09T02:55:53.629Z,78.3
2017-08-09T02:56:55.000Z,78.3
2017-08-09T02:57:56.515Z,78.4
2017-08-09T02:58:57.901Z,77.9
2017-08-09T02:59:59.314Z,78.1
2017-08-09T03:01:00.713Z,78.2
2017-08-09T03:02:02.103Z,78.1
2017-08-09T03:03:03.482Z,77.9
2017-08-09T03:04:04.909Z,76.4
2017-08-09T03:05:06.371Z,77.0
2017-08-09T03:06:07.759Z,77.3
2017-08-09T03:07:09.147Z,77.0
2017-08-09T03:08:10.718Z,77.1
2017-08-09T03:09:12.102Z,77.1
2017-08-09T03:10:13.564Z,77.4
2017-08-09T03:11:14.974Z,77.0
2017-08-09T03:12:16.354Z,77.7
2017-08-09T03:13:17.737Z,76.7
2017-08-09T03:14:19.119Z,77.3
2017-08-09T03:15:20.548Z,77.6
2017-08-09T03:16:21.936Z,77.7
2017-08-09T03:17:23.387Z,77.6
2017-08-09T03:18:24.867Z,76.9
2017-08-09T03:19:26.311Z,76.7
2017-08-09T03:20:27.761Z,77.3
2017-08-09T03:21:29.131Z,77.2
2017-08-09T03:22:30.531Z,76.7
2017-08-09T03:23:32.012Z,76.8
2017-08-09T03:24:33.391Z,76.9
2017-08-09T03:25:34.837Z,77.7
2017-08-09T03:26:36.251Z,76.7
2017-08-09T03:27:37.637Z,76.9
2017-08-09T03:28:39.016Z,76.7
2017-08-09T03:29:40.449Z,77.5
2017-08-09T03:30:41.833Z,77.4
2017-08-09T03:31:43.320Z,77.4
2017-08-09T03:32:44.782Z,78.0
2017-08-09T03:33:46.198Z,78.0
2017-08-09T03:34:47.602Z,77.7
2017-08-09T03:36:29.964Z,78.1
2017-08-09T03:37:31.356Z,78.0
2017-08-09T03:38:32.717Z,77.8
2017-08-09T03:39:34.094Z,78.0
2017-08-09T03:40:35.477Z,78.1
2017-08-09T03:41:36.853Z,78.4
2017-08-09T03:42:38.234Z,78.2
2017-08-09T03:43:39.639Z,78.4
2017-08-09T03:44:41.029Z,78.5
2017-08-09T03:45:42.406Z,78.4
2017-08-09T03:46:43.896Z,78.5
2017-08-09T03:47:45.274Z,78.6
2017-08-09T03:48:46.661Z,78.8
2017-08-09T03:49:48.135Z,78.2
2017-08-09T03:50:50.275Z,78.5
2017-08-09T03:51:52.292Z,78.4
2017-08-09T03:52:53.813Z,78.7
2017-08-09T03:53:55.185Z,78.1
2017-08-09T03:54:56.584Z,78.9
2017-08-09T03:55:58.151Z,78.5
2017-08-09T03:56:59.611Z,78.6
2017-08-09T03:58:01.046Z,79.1
2017-08-09T03:59:02.488Z,78.6
2017-08-09T04:00:03.882Z,78.7
2017-08-09T04:01:05.324Z,79.1
2017-08-09T04:02:06.698Z,79.0
2017-08-09T04:03:08.088Z,79.2
2017-08-09T04:04:09.486Z,78.7
2017-08-09T04:05:10.892Z,78.8
2017-08-09T04:06:12.269Z,78.9
2017-08-09T04:07:13.669Z,79.4
2017-08-09T04:08:15.117Z,78.8
2017-08-09T04:09:16.503Z,79.3
2017-08-09T04:10:58.932Z,79.4
2017-08-09T04:12:00.302Z,79.3
2017-08-09T04:13:01.682Z,79.5
2017-08-09T04:14:03.065Z,78.9
2017-08-09T04:15:04.456Z,79.6
2017-08-09T04:16:05.838Z,79.6
2017-08-09T04:17:07.220Z,79.4
2017-08-09T04:18:08.602Z,79.4
2017-08-09T04:19:09.982Z,79.4
2017-08-09T04:20:11.362Z,79.6
2017-08-09T04:21:12.746Z,78.9
2017-08-09T04:22:15.671Z,79.3
2017-08-09T04:23:17.028Z,79.1
2017-08-09T04:24:18.510Z,79.1
2017-08-09T04:25:19.948Z,79.3
2017-08-09T04:26:21.667Z,79.3
2017-08-09T04:27:23.049Z,79.6
2017-08-09T04:28:25.184Z,78.9
2017-08-09T04:29:27.279Z,79.4
2017-08-09T04:30:28.846Z,79.4
2017-08-09T04:31:30.434Z,79.4
2017-08-09T04:32:31.952Z,79.4
2017-08-09T04:33:33.360Z,79.7
2017-08-09T04:34:35.852Z,79.4
2017-08-09T04:35:37.817Z,79.2
2017-08-09T04:36:39.512Z,79.4
2017-08-09T04:37:40.914Z,78.7
2017-08-09T04:38:42.300Z,79.1
2017-08-09T04:39:43.687Z,78.7
2017-08-09T04:40:45.542Z,79.2
2017-08-09T04:41:46.993Z,79.0
2017-08-09T04:42:48.629Z,78.7
2017-08-09T04:43:50.002Z,78.3
2017-08-09T04:45:32.366Z,79.2
2017-08-09T04:46:33.787Z,78.1
2017-08-09T04:47:35.175Z,78.4
2017-08-09T04:48:36.560Z,78.5
2017-08-09T04:49:37.936Z,78.3
2017-08-09T04:50:39.315Z,78.3
2017-08-09T04:51:40.718Z,78.4
2017-08-09T04:52:42.103Z,78.5
2017-08-09T04:53:43.485Z,78.5
2017-08-09T04:54:45.314Z,78.0
2017-08-09T04:55:46.784Z,77.9
2017-08-09T04:56:48.171Z,77.5
2017-08-09T04:57:49.557Z,77.6
2017-08-09T04:58:50.945Z,77.7
2017-08-09T04:59:52.451Z,77.6
2017-08-09T05:00:53.840Z,77.6
2017-08-09T05:01:55.220Z,77.8
2017-08-09T05:02:56.789Z,77.8
2017-08-09T05:03:58.193Z,77.7
2017-08-09T05:04:59.726Z,77.7
2017-08-09T05:06:01.144Z,78.1
2017-08-09T05:07:02.535Z,78.4
2017-08-09T05:08:04.047Z,78.1
2017-08-09T05:09:05.500Z,78.1
2017-08-09T05:10:06.868Z,77.7
2017-08-09T05:11:08.262Z,77.4
2017-08-09T05:12:09.659Z,77.8
2017-08-09T05:13:11.073Z,78.5
2017-08-09T05:14:12.492Z,78.0
2017-08-09T05:15:13.870Z,77.7
2017-08-09T05:16:15.463Z,77.7
2017-08-09T05:17:18.317Z,77.6
2017-08-09T05:18:19.747Z,77.9
2017-08-09T05:20:01.113Z,77.7
2017-08-09T05:21:02.495Z,77.8
2017-08-09T05:22:03.875Z,77.9
2017-08-09T05:23:05.259Z,77.7
2017-08-09T05:24:06.644Z,78.0
2017-08-09T05:25:08.029Z,77.9
2017-08-09T05:26:09.415Z,77.3
2017-08-09T05:27:10.847Z,76.9
2017-08-09T05:28:12.195Z,76.8
2017-08-09T05:29:13.676Z,77.0
2017-08-09T05:30:15.043Z,76.8
2017-08-09T05:31:16.822Z,77.3
2017-08-09T05:32:18.242Z,77.5
2017-08-09T05:33:19.619Z,76.6
2017-08-09T05:34:21.030Z,76.6
2017-08-09T05:35:22.414Z,76.8
2017-08-09T05:36:23.797Z,76.8
2017-08-09T05:37:25.180Z,76.1
2017-08-09T05:38:26.567Z,76.7
2017-08-09T05:39:27.952Z,76.6
2017-08-09T05:40:30.404Z,76.7
2017-08-09T05:41:31.959Z,76.2
2017-08-09T05:42:33.346Z,76.5
2017-08-09T05:43:34.731Z,76.8
2017-08-09T05:44:36.248Z,76.4
2017-08-09T05:45:37.630Z,76.4
2017-08-09T05:46:39.222Z,76.0
2017-08-09T05:47:40.634Z,75.7
2017-08-09T05:48:43.011Z,75.8
2017-08-09T05:49:44.435Z,76.3
2017-08-09T05:50:46.480Z,75.8
2017-08-09T05:51:48.488Z,75.5
2017-08-09T05:52:50.452Z,76.0
2017-08-09T05:53:51.909Z,75.7
2017-08-09T05:54:53.851Z,75.3
2017-08-09T05:55:55.292Z,75.5
2017-08-09T05:56:56.744Z,75.1
2017-08-09T05:57:58.164Z,75.0
2017-08-09T05:58:59.592Z,75.0
2017-08-09T06:00:01.018Z,75.2
2017-08-09T06:01:02.410Z,75.1
2017-08-09T06:02:03.804Z,75.5
2017-08-09T06:03:05.181Z,75.3
2017-08-09T06:04:06.583Z,75.1
2017-08-09T06:05:07.969Z,74.8
2017-08-09T06:06:09.701Z,75.2
2017-08-09T06:07:11.179Z,74.5
2017-08-09T06:08:12.570Z,74.7
2017-08-09T06:09:54.963Z,74.8
2017-08-09T06:10:56.350Z,74.9
2017-08-09T06:11:57.731Z,75.3
2017-08-09T06:12:59.112Z,75.0
2017-08-09T06:14:00.665Z,75.0
2017-08-09T06:15:02.003Z,75.2
2017-08-09T06:16:03.387Z,75.5
2017-08-09T06:17:04.771Z,76.1
2017-08-09T06:18:06.158Z,76.3
2017-08-09T06:19:07.556Z,76.6
2017-08-09T06:20:08.940Z,76.8
2017-08-09T06:21:10.458Z,76.7
2017-08-09T06:22:11.955Z,76.8
2017-08-09T06:23:13.397Z,76.8
2017-08-09T06:24:14.827Z,77.5
2017-08-09T06:25:16.236Z,77.0
2017-08-09T06:26:17.646Z,76.4
2017-08-09T06:27:19.055Z,76.7
2017-08-09T06:28:20.455Z,77.6
2017-08-09T06:29:23.218Z,76.6
2017-08-09T06:30:24.653Z,76.1
2017-08-09T06:31:26.069Z,76.6
2017-08-09T06:32:27.447Z,76.4
2017-08-09T06:33:28.835Z,76.4
2017-08-09T06:34:30.377Z,75.9
2017-08-09T06:35:31.745Z,76.2
2017-08-09T06:36:33.284Z,76.1
2017-08-09T06:37:34.823Z,76.2
2017-08-09T06:38:37.341Z,76.4
2017-08-09T06:39:38.790Z,75.2
2017-08-09T06:40:40.177Z,76.0
2017-08-09T06:41:42.149Z,75.4
2017-08-09T06:42:43.581Z,76.2
2017-08-09T06:44:25.947Z,76.2
2017-08-09T06:45:27.333Z,75.8
2017-08-09T06:46:28.716Z,76.3
2017-08-09T06:47:30.099Z,77.0
2017-08-09T06:48:31.482Z,76.8
2017-08-09T06:49:32.889Z,77.1
2017-08-09T06:50:34.283Z,77.9
2017-08-09T06:51:35.664Z,77.7
2017-08-09T06:52:37.047Z,76.9
2017-08-09T06:53:38.431Z,76.8
2017-08-09T06:54:39.818Z,77.1
2017-08-09T06:56:22.191Z,76.2
2017-08-09T06:57:23.571Z,76.4
2017-08-09T06:58:24.954Z,77.0
2017-08-09T06:59:26.361Z,76.9
2017-08-09T07:00:27.746Z,76.7
2017-08-09T07:01:29.129Z,75.8
2017-08-09T07:02:30.515Z,76.4
2017-08-09T07:03:31.932Z,75.7
2017-08-09T07:04:33.324Z,75.6
2017-08-09T07:05:34.847Z,75.0
2017-08-09T07:06:36.226Z,74.2
2017-08-09T07:07:37.614Z,74.5
2017-08-09T07:08:39.007Z,73.6
2017-08-09T07:09:40.582Z,72.9
2017-08-09T07:10:41.970Z,72.7
2017-08-09T07:12:24.343Z,71.8
2017-08-09T07:13:25.728Z,71.2
2017-08-09T07:14:27.116Z,71.2
2017-08-09T07:15:28.496Z,71.7
2017-08-09T07:16:29.898Z,71.7
2017-08-09T07:17:31.367Z,71.3
2017-08-09T07:18:32.771Z,71.3
2017-08-09T07:19:34.146Z,71.1
2017-08-09T07:20:36.387Z,70.9
2017-08-09T07:21:37.953Z,70.0
2017-08-09T07:22:39.386Z,69.4
2017-08-09T07:23:40.816Z,67.4
2017-08-09T07:24:43.235Z,67.2
2017-08-09T07:25:44.670Z,67.2
2017-08-09T07:26:46.229Z,67.1
2017-08-09T07:27:47.618Z,65.5
2017-08-09T07:28:49.004Z,66.4
2017-08-09T07:29:50.396Z,65.2
2017-08-09T07:30:51.789Z,65.4
2017-08-09T07:31:53.175Z,65.5
2017-08-09T07:32:54.573Z,64.6
2017-08-09T07:33:56.287Z,65.2
2017-08-09T07:34:57.649Z,65.3
2017-08-09T07:35:59.033Z,63.3
2017-08-09T07:37:01.246Z,63.2
2017-08-09T07:38:03.321Z,62.5
2017-08-09T07:39:05.387Z,61.6
2017-08-09T07:40:06.809Z,61.8
2017-08-09T07:41:08.202Z,60.7
2017-08-09T07:42:09.641Z,59.5
2017-08-09T07:43:11.824Z,58.1
2017-08-09T07:44:13.253Z,57.0
2017-08-09T07:45:14.660Z,56.7
2017-08-09T07:46:16.125Z,56.8
2017-08-09T07:47:17.513Z,56.1
2017-08-09T07:48:18.922Z,55.9
2017-08-09T07:49:20.342Z,53.5
2017-08-09T07:50:21.726Z,54.7
2017-08-09T07:51:23.153Z,53.5
2017-08-09T07:52:24.612Z,52.7
2017-08-09T07:53:26.014Z,53.4
2017-08-09T07:54:27.421Z,51.9
2017-08-09T07:56:09.846Z,51.0
2017-08-09T07:57:11.284Z,51.4
2017-08-09T07:58:12.674Z,50.4
2017-08-09T07:59:14.142Z,49.2
2017-08-09T08:00:15.813Z,48.4
2017-08-09T08:01:17.205Z,49.2
2017-08-09T08:02:18.601Z,48.9
2017-08-09T08:03:19.999Z,49.1
2017-08-09T08:04:21.423Z,49.6
2017-08-09T08:05:22.952Z,46.5
2017-08-09T08:06:24.498Z,47.2
2017-08-09T08:07:25.893Z,48.5
2017-08-09T08:08:27.287Z,48.6
2017-08-09T08:09:29.115Z,47.5
2017-08-09T08:10:30.609Z,46.8
2017-08-09T08:11:32.768Z,47.4
2017-08-09T08:12:34.868Z,47.9
2017-08-09T08:13:36.326Z,46.9
2017-08-09T08:14:37.771Z,47.7
2017-08-09T08:15:39.521Z,47.3
2017-08-09T08:16:41.319Z,46.7
2017-08-09T08:17:42.719Z,47.5
2017-08-09T08:18:44.110Z,48.1
2017-08-09T08:19:45.503Z,47.5
2017-08-09T08:20:46.986Z,48.8
2017-08-09T08:21:48.407Z,49.0
2017-08-09T08:22:49.819Z,49.1
2017-08-09T08:23:51.276Z,50.5
2017-08-09T08:24:52.702Z,50.2
2017-08-09T08:25:54.098Z,50.6
2017-08-09T08:26:55.495Z,50.4
2017-08-09T08:27:56.979Z,49.1
2017-08-09T08:29:39.353Z,48.6
2017-08-09T08:30:40.742Z,48.5
2017-08-09T08:31:42.136Z,48.6
2017-08-09T08:32:43.525Z,48.6
2017-08-09T08:34:24.888Z,47.2
2017-08-09T08:35:26.283Z,47.1
2017-08-09T08:36:48.300Z,46.4
2017-08-09T08:37:49.693Z,46.1
2017-08-09T08:38:51.113Z,46.2
2017-08-09T08:39:52.508Z,45.9
2017-08-09T08:40:53.910Z,44.7
2017-08-09T08:41:55.297Z,46.2
2017-08-09T08:42:56.694Z,43.1
2017-08-09T08:43:58.087Z,42.4
2017-08-09T08:44:59.479Z,43.4
2017-08-09T08:46:00.871Z,44.3
2017-08-09T08:47:02.264Z,41.6
2017-08-09T08:48:03.655Z,43.1
2017-08-09T08:49:05.072Z,41.1
2017-08-09T08:50:06.468Z,41.3
2017-08-09T08:51:07.868Z,41.8
2017-08-09T08:52:09.257Z,42.1
2017-08-09T08:53:10.645Z,41.5
2017-08-09T08:54:53.026Z,43.0
2017-08-09T08:55:54.418Z,43.0
2017-08-09T08:56:55.866Z,41.2
2017-08-09T08:57:57.253Z,41.4
2017-08-09T08:58:58.651Z,43.0
2017-08-09T09:00:00.045Z,42.5
2017-08-09T09:01:01.477Z,42.7
2017-08-09T09:02:02.864Z,42.3
2017-08-09T09:03:04.263Z,42.1
2017-08-09T09:04:05.651Z,40.7
2017-08-09T09:05:07.046Z,40.7
2017-08-09T09:06:08.437Z,40.8
2017-08-09T09:07:09.832Z,39.6
2017-08-09T09:08:11.224Z,38.3
2017-08-09T09:09:12.620Z,41.0
2017-08-09T09:10:14.016Z,38.7
2017-08-09T09:11:15.409Z,38.0
2017-08-09T09:12:16.819Z,39.0
2017-08-09T09:13:18.235Z,37.8
2017-08-09T09:14:19.630Z,38.2
2017-08-09T09:15:21.039Z,38.7
2017-08-09T09:16:22.453Z,38.5
2017-08-09T09:17:23.850Z,37.7
2017-08-09T09:18:25.248Z,37.3
2017-08-09T09:19:26.643Z,38.3
2017-08-09T09:20:28.040Z,36.9
2017-08-09T09:21:29.490Z,36.2
2017-08-09T09:22:30.896Z,36.7
2017-08-09T09:23:32.305Z,37.8
2017-08-09T09:24:33.703Z,38.7
2017-08-09T09:25:35.109Z,37.6
2017-08-09T09:27:17.494Z,37.4
2017-08-09T09:28:18.884Z,36.2
2017-08-09T09:29:20.278Z,36.2
2017-08-09T09:30:21.709Z,35.7
2017-08-09T09:31:23.097Z,36.4
2017-08-09T09:32:24.498Z,36.4
2017-08-09T09:33:25.899Z,36.4
2017-08-09T09:34:27.315Z,35.5
2017-08-09T09:35:28.714Z,35.3
2017-08-09T09:36:30.110Z,35.1
2017-08-09T09:38:11.505Z,36.3
2017-08-09T09:39:12.911Z,33.9
2017-08-09T09:40:35.908Z,33.9
2017-08-09T09:41:37.306Z,33.9
2017-08-09T09:42:38.705Z,34.3
2017-08-09T09:43:40.102Z,34.2
2017-08-09T09:44:41.522Z,33.8
2017-08-09T09:45:42.924Z,34.2
2017-08-09T09:46:44.325Z,33.5
2017-08-09T09:47:45.724Z,35.0
2017-08-09T09:48:47.122Z,36.1
2017-08-09T09:49:48.530Z,35.5
2017-08-09T09:50:49.927Z,36.1
2017-08-09T09:51:51.328Z,36.3
2017-08-09T09:52:52.729Z,36.8
2017-08-09T09:53:54.120Z,36.3
2017-08-09T09:54:55.518Z,36.9
2017-08-09T09:55:56.915Z,36.9
2017-08-09T09:57:39.302Z,36.7
2017-08-09T09:58:40.692Z,36.8
2017-08-09T09:59:42.101Z,38.1
2017-08-09T10:00:43.501Z,38.7
2017-08-09T10:01:44.907Z,39.7
2017-08-09T10:02:46.307Z,41.1
2017-08-09T10:04:27.698Z,40.2
2017-08-09T10:05:29.107Z,39.6
2017-08-09T10:06:52.108Z,37.6
2017-08-09T10:07:53.503Z,38.7
2017-08-09T10:08:54.899Z,38.5
2017-08-09T10:09:56.288Z,38.4
2017-08-09T10:10:57.685Z,37.5
2017-08-09T10:11:59.083Z,36.8
2017-08-09T10:13:00.481Z,36.3
2017-08-09T10:14:01.908Z,36.8
2017-08-09T10:15:03.301Z,35.6
2017-08-09T10:16:04.692Z,35.4
2017-08-09T10:17:06.090Z,36.0
2017-08-09T10:18:07.492Z,35.2
2017-08-09T10:19:08.878Z,36.2
2017-08-09T10:20:10.276Z,37.1
2017-08-09T10:21:11.676Z,36.3
2017-08-09T10:22:13.070Z,37.8
2017-08-09T10:23:14.467Z,35.2
2017-08-09T10:24:15.860Z,34.7
2017-08-09T10:25:17.260Z,35.1
2017-08-09T10:26:18.663Z,34.2
2017-08-09T10:27:20.061Z,35.4
2017-08-09T10:28:21.468Z,38.2
2017-08-09T10:29:22.899Z,35.2
2017-08-09T10:30:24.288Z,33.4
2017-08-09T10:31:25.688Z,35.1
2017-08-09T10:32:27.096Z,35.1
2017-08-09T10:33:28.515Z,35.1
2017-08-09T10:34:29.915Z,35.6
2017-08-09T10:35:31.316Z,35.2
2017-08-09T10:36:32.724Z,35.0
2017-08-09T10:37:34.109Z,33.9
2017-08-09T10:39:15.013Z,33.8
2017-08-09T10:40:16.412Z,34.3
2017-08-09T10:41:17.808Z,34.2
2017-08-09T10:42:19.209Z,35.5
2017-08-09T10:43:20.608Z,33.9
2017-08-09T10:44:22.006Z,34.1
2017-08-09T10:45:23.410Z,30.9
2017-08-09T10:46:24.814Z,32.1
2017-08-09T10:47:26.209Z,31.4
2017-08-09T10:48:27.610Z,30.9
2017-08-09T10:49:29.009Z,30.8
2017-08-09T10:50:30.411Z,29.7
2017-08-09T10:51:31.815Z,27.3
2017-08-09T10:52:33.218Z,27.6
2017-08-09T10:53:34.623Z,27.7
2017-08-09T10:54:36.027Z,28.6
2017-08-09T10:55:37.437Z,28.4
2017-08-09T10:56:38.825Z,27.9
2017-08-09T10:57:40.234Z,28.9
2017-08-09T10:58:41.642Z,28.9
2017-08-09T10:59:43.034Z,29.8
2017-08-09T11:00:44.436Z,31.5
2017-08-09T11:01:45.836Z,31.3
2017-08-09T11:02:47.269Z,31.5
2017-08-09T11:03:48.669Z,33.2
2017-08-09T11:04:50.069Z,31.1
2017-08-09T11:05:51.471Z,32.5
2017-08-09T11:06:52.879Z,32.6
2017-08-09T11:07:54.275Z,31.3
2017-08-09T11:08:55.672Z,32.6
2017-08-09T11:09:57.093Z,32.3
2017-08-09T11:10:58.480Z,33.6
2017-08-09T11:11:59.873Z,34.5
2017-08-09T11:13:01.271Z,34.0
2017-08-09T11:14:02.675Z,32.4
2017-08-09T11:15:04.072Z,33.0
2017-08-09T11:16:05.466Z,31.1
2017-08-09T11:17:06.868Z,32.2
2017-08-09T11:18:08.265Z,33.4
2017-08-09T11:19:09.668Z,32.1
2017-08-09T11:20:11.071Z,33.2
2017-08-09T11:21:12.470Z,32.0
2017-08-09T11:22:13.869Z,33.1
2017-08-09T11:23:15.265Z,33.2
2017-08-09T11:24:16.670Z,32.1
2017-08-09T11:25:18.069Z,31.8
2017-08-09T11:26:19.466Z,33.6
2017-08-09T11:27:20.867Z,33.9
2017-08-09T11:28:22.265Z,33.4
2017-08-09T11:29:23.660Z,32.0
2017-08-09T11:30:25.058Z,32.1
2017-08-09T11:31:26.453Z,31.9
2017-08-09T11:33:08.849Z,33.3
2017-08-09T11:34:10.251Z,34.2
2017-08-09T11:35:11.652Z,33.8
2017-08-09T11:36:13.110Z,33.4
2017-08-09T11:37:14.498Z,33.3
2017-08-09T11:38:15.891Z,31.5
2017-08-09T11:39:17.309Z,32.9
2017-08-09T11:40:18.709Z,31.2
2017-08-09T11:41:20.109Z,31.2
2017-08-09T11:42:21.528Z,32.5
2017-08-09T11:43:23.180Z,31.1
2017-08-09T11:44:24.972Z,31.2
2017-08-09T11:46:07.397Z,30.4
2017-08-09T11:47:08.794Z,30.9
2017-08-09T11:48:10.191Z,31.2
2017-08-09T11:49:11.590Z,30.7
2017-08-09T11:50:12.990Z,33.1
2017-08-09T11:51:14.386Z,31.5
2017-08-09T11:52:15.788Z,32.2
2017-08-09T11:53:17.191Z,28.1
2017-08-09T11:54:18.589Z,27.8
2017-08-09T11:55:19.986Z,27.3
2017-08-09T11:56:21.393Z,26.9
2017-08-09T11:57:22.784Z,25.8
2017-08-09T11:58:24.184Z,25.0
2017-08-09T11:59:25.589Z,25.7
2017-08-09T12:00:26.995Z,27.3
2017-08-09T12:01:28.394Z,26.6
2017-08-09T12:02:29.794Z,24.9
2017-08-09T12:03:31.195Z,26.0
2017-08-09T12:04:32.609Z,26.4
2017-08-09T12:05:34.012Z,26.3
2017-08-09T12:06:35.416Z,26.5
2017-08-09T12:07:36.819Z,28.2
2017-08-09T12:08:38.217Z,28.8
2017-08-09T12:09:39.619Z,28.3
2017-08-09T12:10:41.016Z,30.1
2017-08-09T12:11:42.425Z,30.8
2017-08-09T12:12:43.826Z,30.7
2017-08-09T12:13:45.229Z,29.9
2017-08-09T12:14:46.633Z,29.3
2017-08-09T12:15:48.029Z,29.3
2017-08-09T12:16:49.434Z,28.7
2017-08-09T12:17:50.834Z,27.2
2017-08-09T12:18:52.240Z,27.5
2017-08-09T12:19:53.641Z,26.6
2017-08-09T12:20:55.043Z,28.1
2017-08-09T12:21:56.447Z,28.7
2017-08-09T12:22:57.848Z,28.8
2017-08-09T12:23:59.249Z,30.1
2017-08-09T12:25:00.646Z,31.5
2017-08-09T12:26:02.052Z,28.7
2017-08-09T12:27:03.454Z,27.9
2017-08-09T12:28:04.858Z,28.4
2017-08-09T12:29:06.264Z,26.5
2017-08-09T12:30:07.679Z,27.5
2017-08-09T12:31:09.075Z,25.7
2017-08-09T12:32:10.479Z,26.5
2017-08-09T12:33:11.885Z,24.6
2017-08-09T12:34:13.287Z,25.2
2017-08-09T12:35:55.686Z,24.1
2017-08-09T12:36:57.093Z,25.9
2017-08-09T12:37:58.487Z,23.8
2017-08-09T12:38:59.885Z,25.0
2017-08-09T12:40:01.291Z,24.8
2017-08-09T12:41:02.691Z,24.8
2017-08-09T12:42:04.093Z,25.4
2017-08-09T12:43:05.499Z,26.0
2017-08-09T12:44:06.899Z,26.5
2017-08-09T12:45:49.289Z,25.0
2017-08-09T12:46:50.689Z,23.8
2017-08-09T12:47:52.091Z,23.8
2017-08-09T12:48:53.496Z,23.9
2017-08-09T12:49:54.903Z,26.5
2017-08-09T12:50:56.303Z,24.0
2017-08-09T12:51:57.709Z,23.7
2017-08-09T12:52:59.112Z,23.9
2017-08-09T12:54:00.513Z,22.6
2017-08-09T12:55:01.925Z,22.6
2017-08-09T12:56:43.327Z,23.5
2017-08-09T12:57:44.724Z,23.3
2017-08-09T12:58:46.121Z,22.7
2017-08-09T12:59:47.535Z,23.1
2017-08-09T13:00:48.949Z,23.9
2017-08-09T13:01:50.352Z,25.0
2017-08-09T13:02:51.754Z,25.7
2017-08-09T13:03:53.158Z,25.7
2017-08-09T13:04:54.556Z,26.3
2017-08-09T13:05:55.959Z,26.1
2017-08-09T13:06:57.374Z,26.7
2017-08-09T13:07:58.777Z,26.3
2017-08-09T13:09:00.182Z,26.1
2017-08-09T13:10:01.583Z,25.6
2017-08-09T13:11:02.983Z,24.9
2017-08-09T13:12:04.383Z,25.7
2017-08-09T13:13:05.786Z,26.2
2017-08-09T13:14:07.177Z,27.0
2017-08-09T13:15:08.597Z,27.2
2017-08-09T13:16:10.023Z,26.7
2017-08-09T13:17:11.402Z,26.2
2017-08-09T13:18:12.806Z,25.3
2017-08-09T13:19:55.208Z,25.8
2017-08-09T13:20:56.608Z,24.6
2017-08-09T13:21:58.008Z,24.9
2017-08-09T13:22:59.412Z,25.2
2017-08-09T13:24:00.816Z,26.5
2017-08-09T13:25:02.215Z,26.2
2017-08-09T13:26:03.629Z,25.0
2017-08-09T13:27:05.030Z,25.1
2017-08-09T13:28:06.448Z,23.6
2017-08-09T13:29:07.834Z,22.6
2017-08-09T13:30:09.241Z,22.5
2017-08-09T13:31:10.647Z,24.5
2017-08-09T13:32:12.046Z,22.7
2017-08-09T13:33:13.451Z,22.6
2017-08-09T13:34:14.857Z,22.9
2017-08-09T13:35:16.260Z,22.5
2017-08-09T13:36:17.665Z,22.7
2017-08-09T13:37:19.068Z,22.7
2017-08-09T13:39:00.477Z,21.1
2017-08-09T13:40:01.875Z,21.1
2017-08-09T13:41:03.273Z,21.9
2017-08-09T13:42:04.670Z,22.6
2017-08-09T13:43:06.073Z,22.6
2017-08-09T13:44:07.474Z,22.7
2017-08-09T13:45:08.875Z,23.4
2017-08-09T13:46:10.277Z,25.3
2017-08-09T13:47:11.674Z,26.3
2017-08-09T13:48:13.082Z,26.0
2017-08-09T13:49:14.480Z,25.4
2017-08-09T13:50:15.881Z,26.3
2017-08-09T13:51:17.280Z,24.6
2017-08-09T13:52:18.679Z,25.7
2017-08-09T13:53:20.084Z,23.8
2017-08-09T13:54:21.482Z,22.3
2017-08-09T13:55:22.882Z,22.4
2017-08-09T13:56:24.282Z,22.5
2017-08-09T13:57:25.683Z,23.1
2017-08-09T13:58:27.090Z,23.1